Time;durP1;ratioP1;P1;durP2;ratioP2;P2;SDS_P1;SDS_P2;PMS_P1;PMS_P2;Temp;Humidity;BMP_temperature;BMP_pressure;BME280_temperature;BME280_humidity;BME280_pressure;Samples;Min_cycle;Max_cycle;Signal;HPM_P1;HPM_P2
2022/11/25 00:00:35;;;;;;;0.00;0.00;;;15.40;84.40;;;;;;4209896;28;20055;-60
2022/11/25 00:03:16;;;;;;;0.00;0.00;;;15.30;84.50;;;;;;4203367;28;20467;-61
2022/11/25 00:06:08;;;;;;;0.00;0.00;;;15.40;84.60;;;;;;4195058;28;20125;-60
2022/11/25 00:08:52;;;;;;;0.00;0.00;;;15.30;84.60;;;;;;4206454;28;20094;-61
2022/11/25 00:11:35;;;;;;;0.00;0.00;;;15.30;84.60;;;;;;4192764;28;20052;-60
2022/11/25 00:14:17;;;;;;;0.00;0.00;;;15.30;84.70;;;;;;4192079;28;20055;-61
2022/11/25 00:16:58;;;;;;;0.00;0.00;;;15.30;84.80;;;;;;4192809;28;20055;-60
2022/11/25 00:19:39;;;;;;;0.00;0.00;;;15.30;84.80;;;;;;4193898;28;20055;-60
2022/11/25 00:22:21;;;;;;;0.00;0.00;;;15.30;85.70;;;;;;4192907;28;20067;-61
2022/11/25 00:25:02;;;;;;;0.00;0.00;;;15.30;85.00;;;;;;4197015;28;20058;-60
2022/11/25 00:27:43;;;;;;;0.00;0.00;;;15.30;85.00;;;;;;4209173;28;20062;-61
2022/11/25 00:30:24;;;;;;;0.00;0.00;;;15.30;85.00;;;;;;4174854;28;20055;-60
2022/11/25 00:33:05;;;;;;;0.05;0.05;;;15.30;85.00;;;;;;4190527;28;20051;-61
2022/11/25 00:35:46;;;;;;;0.10;0.10;;;15.30;85.10;;;;;;4195199;28;20055;-60
2022/11/25 00:38:28;;;;;;;0.05;0.05;;;15.20;85.00;;;;;;4209434;28;20502;-60
2022/11/25 00:47:10;;;;;;;1.05;0.17;;;15.20;85.20;;;;;;4182450;28;20043;-60
2022/11/25 00:49:53;;;;;;;0.05;0.05;;;15.20;85.10;;;;;;4208667;28;20059;-60
2022/11/25 00:52:35;;;;;;;0.00;0.00;;;15.20;85.20;;;;;;4208431;28;20074;-60
2022/11/25 00:55:18;;;;;;;0.00;0.00;;;15.20;85.20;;;;;;4209110;27;20059;-61
2022/11/25 00:57:59;;;;;;;0.00;0.00;;;15.20;85.30;;;;;;4208122;28;20410;-60
2022/11/25 01:00:40;;;;;;;0.00;0.00;;;15.20;86.20;;;;;;4207464;28;20050;-60
2022/11/25 01:03:20;;;;;;;0.80;0.80;;;15.20;85.30;;;;;;4193363;28;20109;-60
2022/11/25 01:06:02;;;;;;;0.00;0.00;;;15.10;86.20;;;;;;4173782;28;20187;-61
2022/11/25 01:08:43;;;;;;;0.00;0.00;;;15.10;85.30;;;;;;4174589;28;20681;-60
2022/11/25 01:11:27;;;;;;;0.00;0.00;;;15.10;85.30;;;;;;4181006;28;20059;-60
2022/11/25 01:14:08;;;;;;;0.00;0.00;;;15.10;85.40;;;;;;4175238;28;20126;-60
2022/11/25 01:16:49;;;;;;;0.00;0.00;;;15.10;85.50;;;;;;4197060;28;20498;-60
2022/11/25 01:19:30;;;;;;;;;;;15.10;85.50;;;;;;4192129;28;20503;-60
2022/11/25 01:22:12;;;;;;;;;;;15.10;85.50;;;;;;4191388;28;20025;-60
2022/11/25 01:24:55;;;;;;;0.05;0.05;;;15.10;86.20;;;;;;4192102;28;19962;-61
2022/11/25 01:27:41;;;;;;;0.00;0.00;;;15.10;85.50;;;;;;4158520;28;20057;-60
2022/11/25 01:30:23;;;;;;;0.00;0.00;;;15.00;85.50;;;;;;4162662;28;20554;-60
2022/11/25 01:33:06;;;;;;;1.17;1.00;;;15.10;85.60;;;;;;4206391;28;20055;-60
2022/11/25 01:35:47;;;;;;;0.00;0.00;;;15.00;85.60;;;;;;4191442;28;20145;-60
2022/11/25 01:38:28;;;;;;;0.00;0.00;;;15.00;85.70;;;;;;4189805;28;20097;-60
2022/11/25 01:41:13;;;;;;;0.00;0.00;;;15.00;86.70;;;;;;4174730;28;20051;-60
2022/11/25 01:44:12;;;;;;;0.00;0.00;;;15.00;85.80;;;;;;4174034;28;20210;-60
2022/11/25 01:46:58;;;;;;;0.00;0.00;;;15.10;86.10;;;;;;4187234;28;20177;-60
2022/11/25 01:49:43;;;;;;;0.00;0.00;;;15.20;85.80;;;;;;4173348;28;20496;-60
2022/11/25 01:52:29;;;;;;;0.70;0.70;;;15.30;85.40;;;;;;4172243;28;20056;-59
2022/11/25 01:55:14;;;;;;;0.10;0.10;;;15.40;85.00;;;;;;4200316;27;20044;-59
2022/11/25 01:58:00;;;;;;;0.00;0.00;;;15.40;85.60;;;;;;4181098;28;20403;-60
2022/11/25 02:00:49;;;;;;;4.25;3.83;;;15.40;84.40;;;;;;4189909;28;20054;-59
2022/11/25 02:03:36;;;;;;;0.00;0.00;;;15.50;84.30;;;;;;4191356;28;20051;-60
2022/11/25 02:06:22;;;;;;;0.00;0.00;;;15.50;84.10;;;;;;4191773;28;20183;-60
2022/11/25 02:09:06;;;;;;;0.00;0.00;;;15.50;84.00;;;;;;4174726;28;20052;-60
2022/11/25 02:11:48;;;;;;;0.13;0.13;;;15.50;84.00;;;;;;4171917;28;20520;-60
2022/11/25 02:14:29;;;;;;;0.00;0.00;;;15.60;84.00;;;;;;4172065;28;20048;-60
2022/11/25 02:17:11;;;;;;;0.00;0.00;;;15.60;83.70;;;;;;4157359;28;20061;-60
2022/11/25 02:20:00;;;;;;;0.00;0.00;;;15.70;83.40;;;;;;4173639;28;20060;-60
2022/11/25 02:22:52;;;;;;;0.00;0.00;;;15.80;83.10;;;;;;4173104;28;20472;-60
2022/11/25 02:25:36;;;;;;;0.00;0.00;;;15.80;82.80;;;;;;4173647;28;20384;-60
2022/11/25 02:28:24;;;;;;;0.00;0.00;;;15.80;82.80;;;;;;4184157;28;20056;-61
2022/11/25 02:31:06;;;;;;;0.22;0.22;;;15.80;82.70;;;;;;4174286;28;20060;-60
2022/11/25 02:33:49;;;;;;;0.17;0.17;;;15.80;82.70;;;;;;4181322;27;20051;-60
2022/11/25 02:36:30;;;;;;;0.00;0.00;;;15.90;82.70;;;;;;4207442;27;20113;-60
2022/11/25 02:39:11;;;;;;;0.00;0.00;;;16.00;82.50;;;;;;4189502;28;20052;-60
2022/11/25 02:41:57;;;;;;;0.00;0.00;;;16.00;82.30;;;;;;4190701;28;20047;-60
2022/11/25 02:44:38;;;;;;;1.55;1.45;;;16.00;82.10;;;;;;4190185;28;20056;-60
2022/11/25 02:47:21;;;;;;;0.00;0.00;;;16.00;82.00;;;;;;4177128;28;20126;-60
2022/11/25 02:50:04;;;;;;;0.00;0.00;;;16.00;82.00;;;;;;4189682;28;20055;-60
2022/11/25 02:52:44;;;;;;;;;;;16.00;82.10;;;;;;4191904;28;20055;-60
2022/11/25 02:55:25;;;;;;;0.10;0.10;;;16.00;82.20;;;;;;4192880;28;19943;-59
2022/11/25 02:58:07;;;;;;;0.00;0.00;;;16.00;82.10;;;;;;4192689;28;20059;-60
2022/11/25 03:00:48;;;;;;;0.10;0.10;;;16.00;82.00;;;;;;4193199;28;20129;-59
2022/11/25 03:03:29;;;;;;;0.00;0.00;;;16.00;82.00;;;;;;4190873;28;20530;-59
2022/11/25 03:06:10;;;;;;;0.00;0.00;;;16.00;82.00;;;;;;4177672;28;20155;-60
2022/11/25 03:08:51;;;;;;;0.38;0.30;;;16.00;82.00;;;;;;4192891;28;20070;-60
2022/11/25 03:14:32;;;;;;;0.08;0.08;;;16.00;81.80;;;;;;4198120;27;20051;-60
2022/11/25 03:17:14;;;;;;;0.00;0.00;;;16.00;82.00;;;;;;4209502;27;20058;-60
2022/11/25 03:19:54;;;;;;;0.00;0.00;;;16.00;82.90;;;;;;4209332;27;20375;-59
2022/11/25 03:22:36;;;;;;;0.10;0.10;;;16.00;81.90;;;;;;4192335;28;20063;-60
2022/11/25 03:25:17;;;;;;;0.00;0.00;;;16.00;81.90;;;;;;4192490;28;20051;-60
2022/11/25 03:28:01;;;;;;;0.00;0.00;;;16.00;81.90;;;;;;4191577;28;20380;-60
2022/11/25 03:30:44;;;;;;;0.00;0.00;;;16.00;82.00;;;;;;4166817;28;20056;-60
2022/11/25 03:33:25;;;;;;;0.00;0.00;;;16.00;82.00;;;;;;4177149;28;20048;-60
2022/11/25 03:36:07;;;;;;;0.00;0.00;;;16.00;82.20;;;;;;4192435;28;20123;-60
2022/11/25 03:38:48;;;;;;;0.00;0.00;;;15.90;82.20;;;;;;4193560;28;20074;-60
2022/11/25 03:41:29;;;;;;;0.00;0.00;;;16.00;82.10;;;;;;4192267;28;20052;-60
2022/11/25 03:44:10;;;;;;;0.00;0.00;;;16.00;82.10;;;;;;4191933;28;20103;-60
2022/11/25 03:46:52;;;;;;;0.17;0.17;;;16.00;82.00;;;;;;4191726;28;20075;-60
2022/11/25 03:49:33;;;;;;;0.00;0.00;;;16.00;82.00;;;;;;4193326;28;20337;-60
2022/11/25 03:52:14;;;;;;;0.22;0.22;;;16.00;82.10;;;;;;4191920;28;20075;-60
2022/11/25 03:54:55;;;;;;;0.10;0.10;;;16.00;82.10;;;;;;4192084;28;20150;-60
2022/11/25 03:57:40;;;;;;;0.00;0.00;;;16.00;82.00;;;;;;4192141;28;20129;-60
2022/11/25 04:00:21;;;;;;;0.00;0.00;;;16.10;81.90;;;;;;4192807;27;20456;-60
2022/11/25 04:03:13;;;;;;;0.00;0.00;;;16.10;81.80;;;;;;4182598;28;20094;-60
2022/11/25 04:05:54;;;;;;;0.00;0.00;;;16.10;81.60;;;;;;4191669;28;20059;-59
2022/11/25 04:08:36;;;;;;;0.00;0.00;;;16.10;81.50;;;;;;4191637;28;20051;-60
2022/11/25 04:11:18;;;;;;;0.00;0.00;;;16.10;81.50;;;;;;4191452;28;20055;-60
2022/11/25 04:14:01;;;;;;;0.00;0.00;;;16.10;82.40;;;;;;4175395;28;20171;-60
2022/11/25 04:16:43;;;;;;;1.15;0.47;;;16.10;81.60;;;;;;4180435;28;20396;-59
2022/11/25 04:19:25;;;;;;;0.00;0.00;;;16.10;81.60;;;;;;4175013;28;20539;-60
2022/11/25 04:22:06;;;;;;;0.00;0.00;;;16.10;81.60;;;;;;4176354;28;20048;-60
2022/11/25 04:24:50;;;;;;;0.50;0.47;;;16.20;81.50;;;;;;4175209;28;20171;-60
2022/11/25 04:27:37;;;;;;;0.30;0.30;;;16.20;81.50;;;;;;4175175;28;20131;-59
2022/11/25 04:30:18;;;;;;;0.00;0.00;;;16.10;81.50;;;;;;4175048;28;20203;-60
2022/11/25 04:32:59;;;;;;;0.00;0.00;;;16.20;81.70;;;;;;4191053;28;20055;-60
2022/11/25 04:35:41;;;;;;;0.00;0.00;;;16.20;81.80;;;;;;4191265;28;20290;-61
2022/11/25 04:38:23;;;;;;;0.00;0.00;;;16.20;81.70;;;;;;4186433;28;20055;-60
2022/11/25 04:41:05;;;;;;;0.00;0.00;;;16.20;81.50;;;;;;4158363;28;20123;-60
2022/11/25 04:43:51;;;;;;;0.00;0.00;;;16.20;81.50;;;;;;4158459;28;20127;-60
2022/11/25 04:46:37;;;;;;;0.00;0.00;;;16.20;81.50;;;;;;4175762;28;20059;-60
2022/11/25 04:49:18;;;;;;;0.15;0.15;;;16.10;81.60;;;;;;4194977;28;20051;-60
2022/11/25 04:52:00;;;;;;;0.13;0.13;;;16.10;81.80;;;;;;4191156;28;20063;-60
2022/11/25 04:54:41;;;;;;;0.00;0.00;;;16.10;82.00;;;;;;4214456;28;20510;-61
2022/11/25 04:57:23;;;;;;;0.00;0.00;;;16.10;82.10;;;;;;4199408;28;20856;-60
2022/11/25 05:00:05;;;;;;;0.00;0.00;;;16.10;81.90;;;;;;4207782;28;20051;-60
2022/11/25 05:02:46;;;;;;;0.00;0.00;;;16.20;81.80;;;;;;4208974;28;20129;-60
2022/11/25 05:05:31;;;;;;;0.00;0.00;;;16.10;81.70;;;;;;4192835;28;20048;-60
2022/11/25 05:08:14;;;;;;;1.17;1.17;;;16.20;81.70;;;;;;4207533;28;20061;-61
2022/11/25 05:10:55;;;;;;;0.00;0.00;;;16.20;81.60;;;;;;4191396;28;20629;-61
2022/11/25 05:13:36;;;;;;;0.10;0.10;;;16.20;81.50;;;;;;4174739;28;20541;-60
2022/11/25 05:16:17;;;;;;;0.28;0.28;;;16.20;81.40;;;;;;4175024;28;20060;-60
2022/11/25 05:18:58;;;;;;;0.00;0.00;;;16.20;81.50;;;;;;4190279;28;20089;-60
2022/11/25 05:21:39;;;;;;;0.00;0.00;;;16.20;81.50;;;;;;4190642;28;20055;-60
2022/11/25 05:24:22;;;;;;;0.00;0.00;;;16.20;81.50;;;;;;4200641;28;20055;-60
2022/11/25 05:27:05;;;;;;;0.00;0.00;;;16.20;82.50;;;;;;4206851;28;20071;-60
2022/11/25 05:29:46;;;;;;;1.55;1.15;;;16.20;81.70;;;;;;4207005;28;20051;-60
2022/11/25 05:32:32;;;;;;;0.10;0.10;;;16.20;81.60;;;;;;4207060;28;20043;-60
2022/11/25 05:35:17;;;;;;;0.00;0.00;;;16.30;81.50;;;;;;4195719;28;20387;-60
2022/11/25 05:38:02;;;;;;;1.45;1.35;;;16.30;81.50;;;;;;4207133;28;20059;-60
2022/11/25 05:40:45;;;;;;;0.00;0.00;;;16.30;81.50;;;;;;4206617;28;20058;-60
2022/11/25 05:43:28;;;;;;;0.00;0.00;;;16.30;81.40;;;;;;4206437;28;20117;-60
2022/11/25 05:46:09;;;;;;;0.00;0.00;;;16.30;81.40;;;;;;4206737;28;20609;-60
2022/11/25 05:48:57;;;;;;;0.00;0.00;;;16.30;81.50;;;;;;4207387;28;20284;-60
2022/11/25 05:51:38;;;;;;;;;;;16.30;81.50;;;;;;4207568;28;20047;-60
2022/11/25 05:54:19;;;;;;;1.05;1.05;;;16.30;81.40;;;;;;4207020;28;19930;-60
2022/11/25 05:57:01;;;;;;;0.00;0.00;;;16.30;81.20;;;;;;4194856;28;20055;-59
2022/11/25 05:59:46;;;;;;;1.38;1.27;;;16.30;81.20;;;;;;4206575;28;20063;-61
2022/11/25 06:02:33;;;;;;;0.55;0.38;;;16.30;81.40;;;;;;4173802;28;20541;-60
2022/11/25 06:05:15;;;;;;;0.00;0.00;;;16.30;81.40;;;;;;4173845;28;20118;-60
2022/11/25 06:07:56;;;;;;;0.00;0.00;;;16.40;81.40;;;;;;4173742;28;20048;-60
2022/11/25 06:10:39;;;;;;;0.10;0.10;;;16.40;81.10;;;;;;4173557;28;20397;-60
2022/11/25 06:13:22;;;;;;;0.20;0.20;;;16.40;81.10;;;;;;4198192;28;20144;-60
2022/11/25 06:16:08;;;;;;;0.00;0.00;;;16.40;81.10;;;;;;4205806;28;20403;-60
2022/11/25 06:18:49;;;;;;;0.20;0.20;;;16.40;81.10;;;;;;4173672;28;20068;-60
2022/11/25 06:21:30;;;;;;;0.25;0.25;;;16.40;81.30;;;;;;4173365;28;20117;-60
2022/11/25 06:24:11;;;;;;;0.00;0.00;;;16.30;81.40;;;;;;4174792;28;20715;-60
2022/11/25 06:26:54;;;;;;;0.00;0.00;;;16.40;81.50;;;;;;4196752;28;20122;-60
2022/11/25 06:29:36;;;;;;;0.00;0.00;;;16.40;81.30;;;;;;4193857;28;20048;-60
2022/11/25 06:32:17;;;;;;;0.00;0.00;;;16.40;81.40;;;;;;4194624;28;20063;-60
2022/11/25 06:35:06;;;;;;;0.52;0.30;;;16.40;81.40;;;;;;4203060;28;20482;-60
2022/11/25 06:38:07;;;;;;;0.00;0.00;;;16.40;81.30;;;;;;4201267;28;20209;-60
2022/11/25 06:40:48;;;;;;;0.05;0.05;;;16.40;81.30;;;;;;4190243;28;20404;-60
2022/11/25 06:43:29;;;;;;;0.10;0.10;;;16.40;81.40;;;;;;4194542;28;20051;-60
2022/11/25 06:46:14;;;;;;;2.70;2.08;;;16.30;81.50;;;;;;4178109;28;20368;-59
2022/11/25 06:49:00;;;;;;;0.00;0.00;;;16.30;81.70;;;;;;4177511;28;20091;-60
2022/11/25 06:51:41;;;;;;;0.00;0.00;;;16.20;82.00;;;;;;4192040;28;20426;-60
2022/11/25 06:54:22;;;;;;;0.00;0.00;;;16.20;82.40;;;;;;4210694;28;20055;-61
2022/11/25 06:57:02;;;;;;;0.00;0.00;;;16.30;82.10;;;;;;4195901;28;20059;-60
2022/11/25 06:59:44;;;;;;;1.10;1.08;;;16.30;81.80;;;;;;4193853;28;20107;-59
2022/11/25 07:02:26;;;;;;;0.05;0.05;;;16.30;81.60;;;;;;4194259;28;20103;-60
2022/11/25 07:05:07;;;;;;;1.10;1.00;;;16.40;81.90;;;;;;4193649;28;20052;-60
2022/11/25 07:07:49;;;;;;;0.00;0.00;;;16.30;81.80;;;;;;4200917;28;20188;-60
2022/11/25 07:10:30;;;;;;;0.00;0.00;;;16.40;81.60;;;;;;4177375;28;20048;-60
2022/11/25 07:13:10;;;;;;;0.00;0.00;;;16.40;81.30;;;;;;4184710;28;20047;-60
2022/11/25 07:15:51;;;;;;;0.63;0.40;;;16.50;81.20;;;;;;4193653;28;20074;-60
2022/11/25 07:18:36;;;;;;;0.00;0.00;;;16.40;81.20;;;;;;4193772;28;20055;-60
2022/11/25 07:21:19;;;;;;;0.00;0.00;;;16.50;81.10;;;;;;4205554;28;20046;-61
2022/11/25 07:24:01;;;;;;;0.00;0.00;;;16.40;81.20;;;;;;4209980;28;20125;-60
2022/11/25 07:26:43;;;;;;;1.95;1.85;;;16.40;81.30;;;;;;4209682;28;20245;-60
2022/11/25 07:29:24;;;;;;;0.20;0.20;;;16.30;81.40;;;;;;4210368;28;20104;-60
2022/11/25 07:32:25;;;;;;;0.00;0.00;;;16.30;81.60;;;;;;4208859;28;20059;-60
2022/11/25 07:35:08;;;;;;;0.20;0.20;;;16.20;81.70;;;;;;4192024;28;20198;-60
2022/11/25 07:37:49;;;;;;;0.90;0.90;;;16.20;81.90;;;;;;4193650;28;20133;-59
2022/11/25 07:40:30;;;;;;;0.00;0.00;;;16.10;82.10;;;;;;4193050;28;20097;-59
2022/11/25 07:43:10;;;;;;;0.20;0.20;;;16.10;82.30;;;;;;4193336;28;20133;-59
2022/11/25 07:45:52;;;;;;;44.00;5.28;;;16.00;82.40;;;;;;4192875;28;20060;-60
2022/11/25 07:48:33;;;;;;;0.00;0.00;;;16.00;82.70;;;;;;4175900;28;20060;-60
2022/11/25 07:51:17;;;;;;;0.00;0.00;;;16.00;82.90;;;;;;4197792;28;20177;-60
2022/11/25 07:54:00;;;;;;;0.10;0.10;;;15.90;83.10;;;;;;4203430;28;20508;-59
2022/11/25 07:56:43;;;;;;;0.00;0.00;;;16.00;83.00;;;;;;4192930;28;20523;-60
2022/11/25 07:59:24;;;;;;;0.00;0.00;;;16.00;82.80;;;;;;4193348;28;20178;-60
2022/11/25 08:02:05;;;;;;;0.05;0.05;;;16.10;82.50;;;;;;4193333;28;20056;-60
2022/11/25 08:04:45;;;;;;;0.00;0.00;;;16.10;82.30;;;;;;4193287;28;20503;-60
2022/11/25 08:07:28;;;;;;;7.47;2.33;;;16.10;82.10;;;;;;4196484;28;20141;-60
2022/11/25 08:10:15;;;;;;;0.08;0.08;;;16.10;81.80;;;;;;4209688;28;20058;-60
2022/11/25 08:12:55;;;;;;;0.00;0.00;;;16.20;81.60;;;;;;4207726;28;20054;-60
2022/11/25 08:15:36;;;;;;;0.00;0.00;;;16.20;81.50;;;;;;4184673;28;20080;-60
2022/11/25 08:18:17;;;;;;;0.30;0.30;;;16.20;81.50;;;;;;4176631;28;20777;-60
2022/11/25 08:20:59;;;;;;;0.00;0.00;;;16.10;81.50;;;;;;4176341;28;20056;-60
2022/11/25 08:23:42;;;;;;;0.00;0.00;;;16.10;81.50;;;;;;4188868;28;20561;-60
2022/11/25 08:26:25;;;;;;;0.15;0.15;;;16.10;81.60;;;;;;4194825;28;20483;-60
2022/11/25 08:29:08;;;;;;;0.00;0.00;;;16.10;81.80;;;;;;4192763;28;20056;-60
2022/11/25 08:31:48;;;;;;;0.00;0.00;;;16.10;81.80;;;;;;4192790;28;20051;-60
2022/11/25 08:34:29;;;;;;;0.28;0.28;;;16.20;81.40;;;;;;4192196;28;20059;-60
2022/11/25 08:37:14;;;;;;;0.00;0.00;;;16.30;81.20;;;;;;4191387;28;20056;-60
2022/11/25 08:39:56;;;;;;;0.00;0.00;;;16.30;80.70;;;;;;4202976;28;20060;-60
2022/11/25 08:42:37;;;;;;;0.08;0.08;;;16.30;80.60;;;;;;4176095;28;20056;-60
2022/11/25 08:45:18;;;;;;;0.00;0.00;;;16.40;80.60;;;;;;4202009;28;20066;-59
2022/11/25 08:47:59;;;;;;;0.10;0.10;;;16.40;80.70;;;;;;4179404;28;20097;-60
2022/11/25 08:50:42;;;;;;;0.10;0.10;;;16.40;80.90;;;;;;4208046;28;20089;-60
2022/11/25 08:53:23;;;;;;;1.67;1.17;;;16.30;81.20;;;;;;4176181;28;20052;-60
2022/11/25 08:56:07;;;;;;;0.00;0.00;;;16.20;81.10;;;;;;4175890;28;20053;-57
2022/11/25 08:58:48;;;;;;;0.00;0.00;;;16.30;81.30;;;;;;4198551;28;20055;-57
2022/11/25 09:01:29;;;;;;;0.17;0.17;;;16.20;81.40;;;;;;4175099;28;20412;-58
2022/11/25 09:04:10;;;;;;;0.00;0.00;;;16.10;81.60;;;;;;4183355;28;20118;-57
2022/11/25 09:06:51;;;;;;;0.00;0.00;;;16.10;81.80;;;;;;4192367;28;20321;-58
2022/11/25 09:09:32;;;;;;;0.00;0.00;;;16.10;82.10;;;;;;4191984;28;20135;-58
2022/11/25 09:12:14;;;;;;;0.05;0.05;;;16.10;82.40;;;;;;4192286;28;20076;-57
2022/11/25 09:14:55;;;;;;;0.00;0.00;;;16.00;82.70;;;;;;4204485;28;20050;-57
2022/11/25 09:17:36;;;;;;;0.00;0.00;;;16.10;82.80;;;;;;4208530;28;20557;-57
2022/11/25 09:20:17;;;;;;;0.00;0.00;;;16.10;82.60;;;;;;4208353;28;20066;-57
2022/11/25 09:22:59;;;;;;;0.00;0.00;;;16.10;82.20;;;;;;4209089;28;20538;-55
2022/11/25 09:25:40;;;;;;;0.00;0.00;;;16.20;82.90;;;;;;4208901;28;20059;-58
2022/11/25 09:28:24;;;;;;;4.72;2.17;;;16.20;81.80;;;;;;4208440;28;20086;-58
2022/11/25 09:31:09;;;;;;;0.00;0.00;;;16.30;81.70;;;;;;4195717;28;20129;-58
2022/11/25 09:33:50;;;;;;;0.00;0.00;;;16.40;81.30;;;;;;4191745;28;20063;-58
2022/11/25 09:36:31;;;;;;;1.45;0.70;;;16.40;80.80;;;;;;4190724;28;20070;-57
2022/11/25 09:39:12;;;;;;;;;;;16.50;80.60;;;;;;4192161;28;20128;-59
2022/11/25 09:48:36;;;;;;;0.00;0.00;;;16.50;80.50;;;;;;4175284;28;20047;-58
2022/11/25 09:51:21;;;;;;;0.00;0.00;;;16.50;80.20;;;;;;4174793;28;20383;-57
2022/11/25 09:54:13;;;;;;;0.00;0.00;;;16.50;80.00;;;;;;4175398;28;20079;-58
2022/11/25 09:56:59;;;;;;;0.00;0.00;;;16.60;80.00;;;;;;4174589;28;20056;-59
2022/11/25 09:59:47;;;;;;;1.48;0.80;;;16.60;79.70;;;;;;4173342;28;20177;-58
2022/11/25 10:02:37;;;;;;;0.00;0.00;;;16.70;79.60;;;;;;4184339;27;20051;-57
2022/11/25 10:05:23;;;;;;;0.13;0.13;;;16.60;79.40;;;;;;4178506;28;20055;-59
2022/11/25 10:08:11;;;;;;;0.00;0.00;;;16.70;79.60;;;;;;4178389;28;20118;-56
2022/11/25 10:10:58;;;;;;;0.10;0.10;;;16.70;79.50;;;;;;4196407;28;20059;-57
2022/11/25 10:13:48;;;;;;;0.00;0.00;;;16.70;79.30;;;;;;4196317;28;20130;-57
2022/11/25 10:16:39;;;;;;;0.00;0.00;;;16.70;79.00;;;;;;4195321;28;20047;-57
2022/11/25 10:19:33;;;;;;;0.00;0.00;;;16.80;79.00;;;;;;4194501;28;20055;-58
2022/11/25 10:22:23;;;;;;;0.00;0.00;;;16.70;79.80;;;;;;4195099;28;20094;-59
2022/11/25 10:25:14;;;;;;;0.00;0.00;;;16.70;79.00;;;;;;4194966;28;20051;-59
2022/11/25 10:27:58;;;;;;;0.00;0.00;;;16.70;79.10;;;;;;4206994;28;21123;-58
2022/11/25 10:30:44;;;;;;;0.28;0.28;;;16.60;79.20;;;;;;4210595;28;20054;-59
2022/11/25 10:33:28;;;;;;;0.00;0.00;;;16.60;79.50;;;;;;4179375;28;20052;-59
2022/11/25 10:36:16;;;;;;;0.00;0.00;;;16.60;79.60;;;;;;4194305;28;20097;-59
2022/11/25 10:39:00;;;;;;;0.00;0.00;;;16.50;79.90;;;;;;4186387;28;20047;-59
2022/11/25 10:41:48;;;;;;;0.00;0.00;;;16.50;80.20;;;;;;4177953;28;20060;-59
2022/11/25 10:44:34;;;;;;;0.32;0.32;;;16.40;80.50;;;;;;4190746;28;20105;-59
2022/11/25 10:47:32;;;;;;;0.00;0.00;;;16.40;80.80;;;;;;4194216;28;20121;-59
2022/11/25 10:50:17;;;;;;;0.30;0.30;;;16.30;81.00;;;;;;4200378;28;20051;-59
2022/11/25 10:53:02;;;;;;;0.20;0.20;;;16.30;81.20;;;;;;4210908;28;20181;-59
2022/11/25 10:56:00;;;;;;;0.08;0.08;;;16.20;81.40;;;;;;4211007;28;20055;-59
2022/11/25 10:58:41;;;;;;;0.00;0.00;;;16.10;81.60;;;;;;4193925;28;20056;-59
2022/11/25 11:01:24;;;;;;;0.00;0.00;;;16.10;81.90;;;;;;4178408;28;20511;-59
2022/11/25 11:04:13;;;;;;;0.10;0.10;;;16.10;82.10;;;;;;4193597;28;20129;-59
2022/11/25 11:07:06;;;;;;;0.10;0.10;;;16.00;82.40;;;;;;4192945;28;20055;-59
2022/11/25 11:09:49;;;;;;;0.00;0.00;;;16.00;83.40;;;;;;4191254;28;20422;-60
2022/11/25 11:12:30;;;;;;;0.00;0.00;;;16.00;82.60;;;;;;4191423;28;20181;-59
2022/11/25 11:15:18;;;;;;;0.00;0.00;;;15.90;82.70;;;;;;4193677;28;20058;-59
2022/11/25 11:18:00;;;;;;;0.00;0.00;;;15.90;82.80;;;;;;4193976;28;20522;-59
2022/11/25 11:20:46;;;;;;;0.00;0.00;;;15.90;82.90;;;;;;4193943;28;20063;-59
2022/11/25 11:23:28;;;;;;;0.00;0.00;;;15.90;83.00;;;;;;4193682;27;20133;-59
2022/11/25 11:26:23;;;;;;;0.00;0.00;;;15.80;83.10;;;;;;4194043;28;20400;-59
2022/11/25 11:29:05;;;;;;;0.00;0.00;;;15.80;83.20;;;;;;4209411;27;20162;-59
2022/11/25 11:31:58;;;;;;;0.08;0.08;;;15.80;83.30;;;;;;4193511;28;20059;-59
2022/11/25 11:34:54;;;;;;;2.25;2.05;;;15.80;83.40;;;;;;4192220;28;20118;-59
2022/11/25 11:37:43;;;;;;;1.15;0.60;;;15.70;83.50;;;;;;4192051;28;20052;-59
2022/11/25 11:40:31;;;;;;;0.30;0.30;;;15.70;83.60;;;;;;4193166;28;20055;-59
2022/11/25 11:43:37;;;;;;;0.00;0.00;;;15.70;84.50;;;;;;4184255;28;20063;-59
2022/11/25 11:46:42;;;;;;;0.00;0.00;;;15.70;83.80;;;;;;4172918;28;20055;-59
2022/11/25 11:49:52;;;;;;;0.10;0.10;;;15.70;83.80;;;;;;4189996;28;20055;-59
2022/11/25 11:52:44;;;;;;;0.00;0.00;;;15.70;83.70;;;;;;4170663;28;20135;-57
2022/11/25 11:55:39;;;;;;;0.28;0.28;;;15.70;83.80;;;;;;4189558;28;20192;-58
2022/11/25 11:58:32;;;;;;;0.00;0.00;;;15.70;83.80;;;;;;4190186;28;20371;-58
2022/11/25 12:01:24;;;;;;;0.60;0.60;;;15.70;84.00;;;;;;4174199;28;20075;-61
2022/11/25 12:04:17;;;;;;;0.20;0.20;;;15.60;84.00;;;;;;4171526;28;20503;-60
2022/11/25 12:07:03;;;;;;;0.00;0.00;;;15.70;84.40;;;;;;4173438;28;20051;-61
2022/11/25 12:09:49;;;;;;;0.38;0.30;;;15.60;84.50;;;;;;4173594;28;20056;-61
2022/11/25 12:12:36;;;;;;;0.30;0.30;;;15.60;84.70;;;;;;4162541;28;20076;-60
2022/11/25 12:15:24;;;;;;;0.85;0.85;;;15.60;84.80;;;;;;4164181;28;20503;-59
2022/11/25 12:18:15;;;;;;;0.10;0.10;;;15.50;84.80;;;;;;4172996;28;20242;-60
2022/11/25 12:21:02;;;;;;;0.30;0.30;;;15.50;85.30;;;;;;4161807;28;20404;-59
2022/11/25 12:23:50;;;;;;;0.00;0.00;;;15.50;85.60;;;;;;4172757;28;20052;-59
2022/11/25 12:26:39;;;;;;;0.03;0.03;;;15.60;85.80;;;;;;4155771;28;20109;-59
2022/11/25 12:29:27;;;;;;;0.10;0.10;;;15.50;85.70;;;;;;4157636;28;20118;-59
2022/11/25 12:32:30;;;;;;;0.38;0.38;;;15.50;85.70;;;;;;4156970;28;20065;-59
2022/11/25 12:35:19;;;;;;;1.45;0.65;;;15.50;85.70;;;;;;4156373;28;20087;-59
2022/11/25 12:38:13;;;;;;;0.00;0.00;;;15.50;85.70;;;;;;4157062;28;20048;-59
2022/11/25 12:41:04;;;;;;;0.10;0.10;;;15.50;85.70;;;;;;4173031;28;20407;-60
2022/11/25 12:43:48;;;;;;;0.00;0.00;;;15.50;86.20;;;;;;4173616;28;20495;-59
2022/11/25 12:46:36;;;;;;;0.00;0.00;;;15.50;86.20;;;;;;4176792;28;20050;-59
2022/11/25 12:49:22;;;;;;;0.20;0.20;;;15.50;86.20;;;;;;4178166;28;20056;-59
2022/11/25 12:52:18;;;;;;;0.00;0.00;;;15.50;86.30;;;;;;4195642;28;20059;-59
2022/11/25 12:55:10;;;;;;;0.00;0.00;;;15.50;86.30;;;;;;4194564;27;20391;-60
2022/11/25 12:58:33;;;;;;;1.88;1.75;;;15.60;86.40;;;;;;4208848;27;20054;-60
2022/11/25 13:01:44;;;;;;;0.00;0.00;;;15.50;86.40;;;;;;4208238;27;20743;-60
2022/11/25 13:04:48;;;;;;;0.00;0.00;;;15.50;86.50;;;;;;4184342;28;20063;-60
2022/11/25 13:07:34;;;;;;;0.00;0.00;;;15.50;86.50;;;;;;4191678;28;20051;-61
2022/11/25 13:10:40;;;;;;;0.10;0.10;;;15.50;86.60;;;;;;4191749;28;20105;-61
2022/11/25 13:13:38;;;;;;;0.00;0.00;;;15.60;86.70;;;;;;4195894;28;20490;-62
2022/11/25 13:16:21;;;;;;;0.00;0.00;;;15.50;86.80;;;;;;4208016;28;20564;-54
2022/11/25 13:19:10;;;;;;;0.00;0.00;;;15.50;86.90;;;;;;4208720;28;20051;-54
2022/11/25 13:22:03;;;;;;;0.55;0.55;;;15.60;87.00;;;;;;4208846;28;20055;-56
2022/11/25 13:24:43;;;;;;;0.00;0.00;;;15.60;87.90;;;;;;4208149;28;20051;-56
2022/11/25 13:27:32;;;;;;;0.00;0.00;;;15.60;87.10;;;;;;4199751;28;20056;-56
2022/11/25 13:30:36;;;;;;;0.20;0.20;;;15.60;87.20;;;;;;4191393;28;20114;-56
2022/11/25 13:33:55;;;;;;;0.10;0.10;;;15.60;87.30;;;;;;4191499;28;20054;-56
2022/11/25 13:36:48;;;;;;;0.00;0.00;;;15.60;87.20;;;;;;4191296;28;20384;-59
2022/11/25 13:39:32;;;;;;;0.00;0.00;;;15.60;87.20;;;;;;4191223;28;20392;-59
2022/11/25 13:42:16;;;;;;;1.48;0.63;;;15.60;87.40;;;;;;4200868;28;20051;-59
2022/11/25 13:44:59;;;;;;;0.00;0.00;;;15.60;87.60;;;;;;4175258;28;20118;-59
2022/11/25 13:47:49;;;;;;;0.20;0.20;;;15.60;87.40;;;;;;4184556;28;20127;-59
2022/11/25 13:50:30;;;;;;;0.75;0.75;;;15.70;87.30;;;;;;4190309;28;20129;-59
2022/11/25 13:53:34;;;;;;;0.00;0.00;;;15.70;87.20;;;;;;4201356;27;20462;-59
2022/11/25 13:56:27;;;;;;;0.00;0.00;;;15.70;87.20;;;;;;4190275;28;20063;-59
2022/11/25 13:59:35;;;;;;;0.00;0.00;;;15.60;87.10;;;;;;4174517;28;20068;-59
2022/11/25 14:02:45;;;;;;;0.00;0.00;;;15.60;87.10;;;;;;4191004;28;20503;-59
2022/11/25 14:05:47;;;;;;;0.00;0.00;;;15.60;87.10;;;;;;4206984;28;20071;-59
2022/11/25 14:08:37;;;;;;;0.00;0.00;;;15.60;87.00;;;;;;4207407;28;20055;-60
2022/11/25 14:11:49;;;;;;;0.00;0.00;;;15.60;87.00;;;;;;4207947;28;20047;-59
2022/11/25 14:15:01;;;;;;;0.08;0.08;;;15.60;87.00;;;;;;4208002;28;20059;-59
2022/11/25 14:18:11;;;;;;;0.00;0.00;;;15.60;86.90;;;;;;4191701;28;20055;-59
2022/11/25 14:21:00;;;;;;;0.00;0.00;;;15.60;86.90;;;;;;4191364;28;20133;-61
2022/11/25 14:23:49;;;;;;;0.00;0.00;;;15.50;86.90;;;;;;4191369;28;20039;-61
2022/11/25 14:26:32;;;;;;;0.43;0.43;;;15.60;86.90;;;;;;4191228;28;20051;-61
2022/11/25 14:29:42;;;;;;;0.00;0.00;;;15.50;86.90;;;;;;4189930;28;20052;-60
2022/11/25 14:32:28;;;;;;;0.08;0.08;;;15.50;86.90;;;;;;4174790;28;20240;-61
2022/11/25 14:35:13;;;;;;;0.00;0.00;;;15.50;86.90;;;;;;4173855;28;20408;-60
2022/11/25 14:37:59;;;;;;;0.00;0.00;;;15.50;86.90;;;;;;4174796;28;20138;-61